sensor_id;sensor_type;location;lat;lon;timestamp;P1;durP1;ratioP1;P2;durP2;ratioP2
12296;SDS011;6211;49.124;9.152;2022-11-18T00:01:05;0.95;;;0.52;;
12296;SDS011;6211;49.124;9.152;2022-11-18T00:03:32;0.90;;;0.50;;
12296;SDS011;6211;49.124;9.152;2022-11-18T00:05:59;1.85;;;0.70;;
12296;SDS011;6211;49.124;9.152;2022-11-18T00:08:26;2.53;;;1.10;;
12296;SDS011;6211;49.124;9.152;2022-11-18T00:10:53;1.17;;;1.00;;
12296;SDS011;6211;49.124;9.152;2022-11-18T00:13:22;0.60;;;0.60;;
12296;SDS011;6211;49.124;9.152;2022-11-18T00:16:07;0.50;;;0.50;;
12296;SDS011;6211;49.124;9.152;2022-11-18T00:18:35;0.45;;;0.45;;
12296;SDS011;6211;49.124;9.152;2022-11-18T00:21:02;0.80;;;0.50;;
12296;SDS011;6211;49.124;9.152;2022-11-18T00:23:30;0.85;;;0.60;;
12296;SDS011;6211;49.124;9.152;2022-11-18T00:26:00;0.38;;;0.30;;
12296;SDS011;6211;49.124;9.152;2022-11-18T00:28:29;2.03;;;0.60;;
12296;SDS011;6211;49.124;9.152;2022-11-18T00:30:59;0.93;;;0.55;;
12296;SDS011;6211;49.124;9.152;2022-11-18T00:33:27;0.45;;;0.30;;
12296;SDS011;6211;49.124;9.152;2022-11-18T00:35:54;0.52;;;0.50;;
12296;SDS011;6211;49.124;9.152;2022-11-18T00:38:22;0.50;;;0.50;;
12296;SDS011;6211;49.124;9.152;2022-11-18T00:40:49;1.17;;;0.95;;
12296;SDS011;6211;49.124;9.152;2022-11-18T00:43:24;1.17;;;0.88;;
12296;SDS011;6211;49.124;9.152;2022-11-18T00:45:51;0.30;;;0.30;;
12296;SDS011;6211;49.124;9.152;2022-11-18T00:48:18;1.23;;;0.50;;
12296;SDS011;6211;49.124;9.152;2022-11-18T00:50:46;0.45;;;0.40;;
12296;SDS011;6211;49.124;9.152;2022-11-18T00:53:13;0.20;;;0.20;;
12296;SDS011;6211;49.124;9.152;2022-11-18T00:55:40;0.35;;;0.35;;
12296;SDS011;6211;49.124;9.152;2022-11-18T00:58:07;0.30;;;0.30;;
12296;SDS011;6211;49.124;9.152;2022-11-18T01:00:38;0.77;;;0.45;;
12296;SDS011;6211;49.124;9.152;2022-11-18T01:03:06;0.90;;;0.30;;
12296;SDS011;6211;49.124;9.152;2022-11-18T01:05:33;0.30;;;0.30;;
12296;SDS011;6211;49.124;9.152;2022-11-18T01:08:01;0.30;;;0.30;;
12296;SDS011;6211;49.124;9.152;2022-11-18T01:10:28;0.35;;;0.35;;
12296;SDS011;6211;49.124;9.152;2022-11-18T01:12:55;0.25;;;0.25;;
12296;SDS011;6211;49.124;9.152;2022-11-18T01:15:40;0.10;;;0.10;;
12296;SDS011;6211;49.124;9.152;2022-11-18T01:18:09;0.55;;;0.38;;
12296;SDS011;6211;49.124;9.152;2022-11-18T01:20:36;0.55;;;0.55;;
12296;SDS011;6211;49.124;9.152;2022-11-18T01:23:04;1.75;;;0.60;;
12296;SDS011;6211;49.124;9.152;2022-11-18T01:25:31;0.32;;;0.20;;
12296;SDS011;6211;49.124;9.152;2022-11-18T01:27:58;0.90;;;0.43;;
12296;SDS011;6211;49.124;9.152;2022-11-18T01:30:25;0.20;;;0.20;;
12296;SDS011;6211;49.124;9.152;2022-11-18T01:32:52;0.45;;;0.45;;
12296;SDS011;6211;49.124;9.152;2022-11-18T01:35:21;0.20;;;0.20;;
12296;SDS011;6211;49.124;9.152;2022-11-18T01:37:48;0.50;;;0.35;;
12296;SDS011;6211;49.124;9.152;2022-11-18T01:40:15;0.40;;;0.40;;
12296;SDS011;6211;49.124;9.152;2022-11-18T01:42:42;0.52;;;0.45;;
12296;SDS011;6211;49.124;9.152;2022-11-18T01:45:20;0.70;;;0.50;;
12296;SDS011;6211;49.124;9.152;2022-11-18T01:47:51;0.40;;;0.40;;
12296;SDS011;6211;49.124;9.152;2022-11-18T01:50:20;0.20;;;0.20;;
12296;SDS011;6211;49.124;9.152;2022-11-18T01:52:47;0.20;;;0.20;;
12296;SDS011;6211;49.124;9.152;2022-11-18T01:55:15;0.85;;;0.70;;
12296;SDS011;6211;49.124;9.152;2022-11-18T01:57:44;0.40;;;0.40;;
12296;SDS011;6211;49.124;9.152;2022-11-18T02:00:13;3.70;;;0.40;;
12296;SDS011;6211;49.124;9.152;2022-11-18T02:02:40;0.55;;;0.55;;
12296;SDS011;6211;49.124;9.152;2022-11-18T02:05:08;0.50;;;0.45;;
12296;SDS011;6211;49.124;9.152;2022-11-18T02:07:37;1.30;;;0.30;;
12296;SDS011;6211;49.124;9.152;2022-11-18T02:10:05;0.50;;;0.40;;
12296;SDS011;6211;49.124;9.152;2022-11-18T02:12:33;0.57;;;0.43;;
12296;SDS011;6211;49.124;9.152;2022-11-18T02:15:00;3.63;;;0.50;;
12296;SDS011;6211;49.124;9.152;2022-11-18T02:17:31;1.42;;;0.70;;
12296;SDS011;6211;49.124;9.152;2022-11-18T02:20:09;0.77;;;0.50;;
12296;SDS011;6211;49.124;9.152;2022-11-18T02:22:48;0.40;;;0.40;;
12296;SDS011;6211;49.124;9.152;2022-11-18T02:25:22;0.40;;;0.40;;
12296;SDS011;6211;49.124;9.152;2022-11-18T02:30:55;0.10;;;0.10;;
12296;SDS011;6211;49.124;9.152;2022-11-18T02:33:25;0.40;;;0.40;;
12296;SDS011;6211;49.124;9.152;2022-11-18T02:35:55;0.25;;;0.25;;
12296;SDS011;6211;49.124;9.152;2022-11-18T02:38:23;0.20;;;0.20;;
12296;SDS011;6211;49.124;9.152;2022-11-18T02:40:52;1.55;;;0.35;;
12296;SDS011;6211;49.124;9.152;2022-11-18T02:43:21;1.88;;;0.40;;
12296;SDS011;6211;49.124;9.152;2022-11-18T02:45:51;1.95;;;0.50;;
12296;SDS011;6211;49.124;9.152;2022-11-18T02:48:21;0.40;;;0.40;;
12296;SDS011;6211;49.124;9.152;2022-11-18T02:50:49;0.43;;;0.28;;
12296;SDS011;6211;49.124;9.152;2022-11-18T02:53:18;0.43;;;0.43;;
12296;SDS011;6211;49.124;9.152;2022-11-18T02:55:45;0.47;;;0.40;;
12296;SDS011;6211;49.124;9.152;2022-11-18T02:58:13;2.03;;;0.50;;
12296;SDS011;6211;49.124;9.152;2022-11-18T03:00:41;0.40;;;0.40;;
12296;SDS011;6211;49.124;9.152;2022-11-18T03:03:22;0.35;;;0.35;;
12296;SDS011;6211;49.124;9.152;2022-11-18T03:05:51;0.70;;;0.43;;
12296;SDS011;6211;49.124;9.152;2022-11-18T03:08:22;0.40;;;0.40;;
12296;SDS011;6211;49.124;9.152;2022-11-18T03:10:53;0.28;;;0.28;;
12296;SDS011;6211;49.124;9.152;2022-11-18T03:13:25;0.90;;;0.52;;
12296;SDS011;6211;49.124;9.152;2022-11-18T03:15:56;0.40;;;0.40;;
12296;SDS011;6211;49.124;9.152;2022-11-18T03:18:27;0.40;;;0.40;;
12296;SDS011;6211;49.124;9.152;2022-11-18T03:21:00;3.47;;;0.75;;
12296;SDS011;6211;49.124;9.152;2022-11-18T03:23:29;0.40;;;0.30;;
12296;SDS011;6211;49.124;9.152;2022-11-18T03:25:58;0.43;;;0.28;;
12296;SDS011;6211;49.124;9.152;2022-11-18T03:28:29;0.20;;;0.20;;
12296;SDS011;6211;49.124;9.152;2022-11-18T03:31:00;0.52;;;0.45;;
12296;SDS011;6211;49.124;9.152;2022-11-18T03:33:31;0.20;;;0.20;;
12296;SDS011;6211;49.124;9.152;2022-11-18T03:36:00;0.22;;;0.22;;
12296;SDS011;6211;49.124;9.152;2022-11-18T03:38:29;0.30;;;0.30;;
12296;SDS011;6211;49.124;9.152;2022-11-18T03:40:57;1.00;;;0.47;;
12296;SDS011;6211;49.124;9.152;2022-11-18T03:43:26;0.50;;;0.50;;
12296;SDS011;6211;49.124;9.152;2022-11-18T03:45:56;0.22;;;0.15;;
12296;SDS011;6211;49.124;9.152;2022-11-18T03:48:27;1.27;;;0.40;;
12296;SDS011;6211;49.124;9.152;2022-11-18T03:50:58;0.40;;;0.40;;
12296;SDS011;6211;49.124;9.152;2022-11-18T03:53:26;4.25;;;0.30;;
12296;SDS011;6211;49.124;9.152;2022-11-18T03:55:55;0.20;;;0.20;;
12296;SDS011;6211;49.124;9.152;2022-11-18T03:58:26;0.30;;;0.30;;
12296;SDS011;6211;49.124;9.152;2022-11-18T04:00:56;0.10;;;0.10;;
12296;SDS011;6211;49.124;9.152;2022-11-18T04:03:25;1.30;;;0.30;;
12296;SDS011;6211;49.124;9.152;2022-11-18T04:05:53;0.10;;;0.10;;
12296;SDS011;6211;49.124;9.152;2022-11-18T04:08:26;0.63;;;0.40;;
12296;SDS011;6211;49.124;9.152;2022-11-18T04:10:57;0.98;;;0.32;;
12296;SDS011;6211;49.124;9.152;2022-11-18T04:13:26;0.35;;;0.20;;
12296;SDS011;6211;49.124;9.152;2022-11-18T04:15:53;0.20;;;0.20;;
12296;SDS011;6211;49.124;9.152;2022-11-18T04:18:21;0.52;;;0.52;;
12296;SDS011;6211;49.124;9.152;2022-11-18T04:20:48;0.20;;;0.20;;
12296;SDS011;6211;49.124;9.152;2022-11-18T04:23:15;0.93;;;0.30;;
12296;SDS011;6211;49.124;9.152;2022-11-18T04:25:44;0.57;;;0.57;;
12296;SDS011;6211;49.124;9.152;2022-11-18T04:28:11;0.63;;;0.50;;
12296;SDS011;6211;49.124;9.152;2022-11-18T04:30:38;0.40;;;0.40;;
12296;SDS011;6211;49.124;9.152;2022-11-18T04:33:05;0.20;;;0.20;;
12296;SDS011;6211;49.124;9.152;2022-11-18T04:35:32;1.20;;;0.35;;
12296;SDS011;6211;49.124;9.152;2022-11-18T04:37:59;0.25;;;0.13;;
12296;SDS011;6211;49.124;9.152;2022-11-18T04:40:26;0.20;;;0.20;;
12296;SDS011;6211;49.124;9.152;2022-11-18T04:42:55;0.20;;;0.20;;
12296;SDS011;6211;49.124;9.152;2022-11-18T04:45:22;0.88;;;0.50;;
12296;SDS011;6211;49.124;9.152;2022-11-18T04:47:49;0.10;;;0.10;;
12296;SDS011;6211;49.124;9.152;2022-11-18T04:50:16;1.75;;;0.50;;
12296;SDS011;6211;49.124;9.152;2022-11-18T04:52:43;0.40;;;0.40;;
12296;SDS011;6211;49.124;9.152;2022-11-18T04:55:10;0.20;;;0.20;;
12296;SDS011;6211;49.124;9.152;2022-11-18T04:57:37;0.20;;;0.20;;
12296;SDS011;6211;49.124;9.152;2022-11-18T05:00:06;0.30;;;0.30;;
12296;SDS011;6211;49.124;9.152;2022-11-18T05:02:34;0.20;;;0.20;;
12296;SDS011;6211;49.124;9.152;2022-11-18T05:05:01;0.20;;;0.20;;
12296;SDS011;6211;49.124;9.152;2022-11-18T05:07:28;0.77;;;0.35;;
12296;SDS011;6211;49.124;9.152;2022-11-18T05:09:55;0.80;;;0.43;;
12296;SDS011;6211;49.124;9.152;2022-11-18T05:12:22;0.32;;;0.30;;
12296;SDS011;6211;49.124;9.152;2022-11-18T05:15:08;0.22;;;0.22;;
12296;SDS011;6211;49.124;9.152;2022-11-18T05:17:35;0.10;;;0.10;;
12296;SDS011;6211;49.124;9.152;2022-11-18T05:20:03;0.20;;;0.20;;
12296;SDS011;6211;49.124;9.152;2022-11-18T05:22:30;0.40;;;0.40;;
12296;SDS011;6211;49.124;9.152;2022-11-18T05:24:57;0.30;;;0.30;;
12296;SDS011;6211;49.124;9.152;2022-11-18T05:27:24;0.30;;;0.30;;
12296;SDS011;6211;49.124;9.152;2022-11-18T05:29:51;0.95;;;0.32;;
12296;SDS011;6211;49.124;9.152;2022-11-18T05:32:20;0.30;;;0.30;;
12296;SDS011;6211;49.124;9.152;2022-11-18T05:34:47;0.20;;;0.20;;
12296;SDS011;6211;49.124;9.152;2022-11-18T05:37:14;0.20;;;0.20;;
12296;SDS011;6211;49.124;9.152;2022-11-18T05:39:41;0.25;;;0.25;;
12296;SDS011;6211;49.124;9.152;2022-11-18T05:42:09;0.13;;;0.13;;
12296;SDS011;6211;49.124;9.152;2022-11-18T05:44:53;1.30;;;0.30;;
12296;SDS011;6211;49.124;9.152;2022-11-18T05:47:21;0.20;;;0.20;;
12296;SDS011;6211;49.124;9.152;2022-11-18T05:49:49;1.25;;;0.52;;
12296;SDS011;6211;49.124;9.152;2022-11-18T05:52:16;0.40;;;0.40;;
12296;SDS011;6211;49.124;9.152;2022-11-18T05:54:44;1.75;;;0.60;;
12296;SDS011;6211;49.124;9.152;2022-11-18T05:57:13;0.40;;;0.40;;
12296;SDS011;6211;49.124;9.152;2022-11-18T05:59:40;0.30;;;0.30;;
12296;SDS011;6211;49.124;9.152;2022-11-18T06:02:09;0.52;;;0.45;;
12296;SDS011;6211;49.124;9.152;2022-11-18T06:04:40;0.57;;;0.57;;
12296;SDS011;6211;49.124;9.152;2022-11-18T06:07:10;1.35;;;0.55;;
12296;SDS011;6211;49.124;9.152;2022-11-18T06:09:39;0.30;;;0.30;;
12296;SDS011;6211;49.124;9.152;2022-11-18T06:12:07;0.55;;;0.30;;
12296;SDS011;6211;49.124;9.152;2022-11-18T06:14:36;0.63;;;0.30;;
12296;SDS011;6211;49.124;9.152;2022-11-18T06:17:07;0.47;;;0.43;;
12296;SDS011;6211;49.124;9.152;2022-11-18T06:19:35;1.30;;;0.57;;
12296;SDS011;6211;49.124;9.152;2022-11-18T06:22:03;0.82;;;0.82;;
12296;SDS011;6211;49.124;9.152;2022-11-18T06:24:31;0.68;;;0.60;;
12296;SDS011;6211;49.124;9.152;2022-11-18T06:26:58;0.50;;;0.50;;
12296;SDS011;6211;49.124;9.152;2022-11-18T06:29:26;0.43;;;0.43;;
12296;SDS011;6211;49.124;9.152;2022-11-18T06:31:53;0.35;;;0.35;;
12296;SDS011;6211;49.124;9.152;2022-11-18T06:34:20;0.38;;;0.38;;
12296;SDS011;6211;49.124;9.152;2022-11-18T06:36:47;0.55;;;0.22;;
12296;SDS011;6211;49.124;9.152;2022-11-18T06:39:16;0.30;;;0.30;;
12296;SDS011;6211;49.124;9.152;2022-11-18T06:41:43;1.65;;;0.30;;
12296;SDS011;6211;49.124;9.152;2022-11-18T06:44:10;0.20;;;0.20;;
12296;SDS011;6211;49.124;9.152;2022-11-18T06:46:36;0.20;;;0.20;;
12296;SDS011;6211;49.124;9.152;2022-11-18T06:49:22;0.32;;;0.32;;
12296;SDS011;6211;49.124;9.152;2022-11-18T06:51:50;0.55;;;0.55;;
12296;SDS011;6211;49.124;9.152;2022-11-18T06:54:18;0.20;;;0.20;;
12296;SDS011;6211;49.124;9.152;2022-11-18T06:56:46;0.52;;;0.30;;
12296;SDS011;6211;49.124;9.152;2022-11-18T06:59:13;0.45;;;0.45;;
12296;SDS011;6211;49.124;9.152;2022-11-18T07:01:46;0.30;;;0.30;;
12296;SDS011;6211;49.124;9.152;2022-11-18T07:04:13;0.50;;;0.40;;
12296;SDS011;6211;49.124;9.152;2022-11-18T07:06:40;0.30;;;0.30;;
12296;SDS011;6211;49.124;9.152;2022-11-18T07:09:07;0.28;;;0.28;;
12296;SDS011;6211;49.124;9.152;2022-11-18T07:11:36;0.70;;;0.70;;
12296;SDS011;6211;49.124;9.152;2022-11-18T07:14:05;0.45;;;0.45;;
12296;SDS011;6211;49.124;9.152;2022-11-18T07:16:32;0.85;;;0.60;;
12296;SDS011;6211;49.124;9.152;2022-11-18T07:18:59;0.90;;;0.60;;
12296;SDS011;6211;49.124;9.152;2022-11-18T07:21:27;0.57;;;0.57;;
12296;SDS011;6211;49.124;9.152;2022-11-18T07:23:55;0.52;;;0.52;;
12296;SDS011;6211;49.124;9.152;2022-11-18T07:26:23;1.27;;;0.50;;
12296;SDS011;6211;49.124;9.152;2022-11-18T07:28:52;1.20;;;0.60;;
12296;SDS011;6211;49.124;9.152;2022-11-18T07:31:19;0.70;;;0.60;;
12296;SDS011;6211;49.124;9.152;2022-11-18T07:33:46;0.55;;;0.55;;
12296;SDS011;6211;49.124;9.152;2022-11-18T07:36:14;0.95;;;0.90;;
12296;SDS011;6211;49.124;9.152;2022-11-18T07:38:42;0.63;;;0.63;;
12296;SDS011;6211;49.124;9.152;2022-11-18T07:41:09;1.58;;;0.40;;
12296;SDS011;6211;49.124;9.152;2022-11-18T07:43:37;0.40;;;0.40;;
12296;SDS011;6211;49.124;9.152;2022-11-18T07:46:10;0.40;;;0.40;;
12296;SDS011;6211;49.124;9.152;2022-11-18T07:48:37;0.38;;;0.38;;
12296;SDS011;6211;49.124;9.152;2022-11-18T07:51:04;0.30;;;0.30;;
12296;SDS011;6211;49.124;9.152;2022-11-18T07:53:32;0.50;;;0.50;;
12296;SDS011;6211;49.124;9.152;2022-11-18T07:55:59;0.30;;;0.30;;
12296;SDS011;6211;49.124;9.152;2022-11-18T07:58:26;0.30;;;0.30;;
12296;SDS011;6211;49.124;9.152;2022-11-18T08:00:54;0.40;;;0.40;;
12296;SDS011;6211;49.124;9.152;2022-11-18T08:03:24;2.08;;;0.50;;
12296;SDS011;6211;49.124;9.152;2022-11-18T08:05:52;0.70;;;0.55;;
12296;SDS011;6211;49.124;9.152;2022-11-18T08:08:19;0.73;;;0.60;;
12296;SDS011;6211;49.124;9.152;2022-11-18T08:10:46;0.40;;;0.40;;
12296;SDS011;6211;49.124;9.152;2022-11-18T08:13:13;0.52;;;0.52;;
12296;SDS011;6211;49.124;9.152;2022-11-18T08:15:41;0.52;;;0.52;;
12296;SDS011;6211;49.124;9.152;2022-11-18T08:18:08;0.52;;;0.52;;
12296;SDS011;6211;49.124;9.152;2022-11-18T08:20:36;0.68;;;0.68;;
12296;SDS011;6211;49.124;9.152;2022-11-18T08:23:03;0.98;;;0.50;;
12296;SDS011;6211;49.124;9.152;2022-11-18T08:25:30;0.55;;;0.55;;
12296;SDS011;6211;49.124;9.152;2022-11-18T08:27:58;0.50;;;0.50;;
12296;SDS011;6211;49.124;9.152;2022-11-18T08:30:25;0.60;;;0.60;;
12296;SDS011;6211;49.124;9.152;2022-11-18T08:32:52;0.57;;;0.57;;
12296;SDS011;6211;49.124;9.152;2022-11-18T08:35:19;0.28;;;0.28;;
12296;SDS011;6211;49.124;9.152;2022-11-18T08:37:47;0.40;;;0.35;;
12296;SDS011;6211;49.124;9.152;2022-11-18T08:40:15;0.50;;;0.50;;
12296;SDS011;6211;49.124;9.152;2022-11-18T08:42:42;0.30;;;0.30;;
12296;SDS011;6211;49.124;9.152;2022-11-18T08:45:09;0.40;;;0.40;;
12296;SDS011;6211;49.124;9.152;2022-11-18T08:47:36;0.30;;;0.30;;
12296;SDS011;6211;49.124;9.152;2022-11-18T08:50:04;0.30;;;0.30;;
12296;SDS011;6211;49.124;9.152;2022-11-18T08:52:31;0.30;;;0.30;;
12296;SDS011;6211;49.124;9.152;2022-11-18T08:54:59;0.28;;;0.28;;
12296;SDS011;6211;49.124;9.152;2022-11-18T08:57:27;0.85;;;0.60;;
12296;SDS011;6211;49.124;9.152;2022-11-18T08:59:54;0.35;;;0.35;;
12296;SDS011;6211;49.124;9.152;2022-11-18T09:02:22;0.38;;;0.38;;
12296;SDS011;6211;49.124;9.152;2022-11-18T09:04:50;0.30;;;0.30;;
12296;SDS011;6211;49.124;9.152;2022-11-18T09:07:17;0.20;;;0.20;;
12296;SDS011;6211;49.124;9.152;2022-11-18T09:09:44;0.30;;;0.30;;
12296;SDS011;6211;49.124;9.152;2022-11-18T09:12:13;0.40;;;0.40;;
12296;SDS011;6211;49.124;9.152;2022-11-18T09:14:41;0.40;;;0.40;;
12296;SDS011;6211;49.124;9.152;2022-11-18T09:17:08;0.50;;;0.50;;
12296;SDS011;6211;49.124;9.152;2022-11-18T09:19:36;0.55;;;0.55;;
12296;SDS011;6211;49.124;9.152;2022-11-18T09:22:03;0.60;;;0.60;;
12296;SDS011;6211;49.124;9.152;2022-11-18T09:24:31;0.65;;;0.63;;
12296;SDS011;6211;49.124;9.152;2022-11-18T09:26:58;0.60;;;0.60;;
12296;SDS011;6211;49.124;9.152;2022-11-18T09:29:29;0.50;;;0.50;;
12296;SDS011;6211;49.124;9.152;2022-11-18T09:31:56;1.88;;;0.73;;
12296;SDS011;6211;49.124;9.152;2022-11-18T09:34:26;0.52;;;0.52;;
12296;SDS011;6211;49.124;9.152;2022-11-18T09:36:53;0.43;;;0.43;;
12296;SDS011;6211;49.124;9.152;2022-11-18T09:39:20;0.50;;;0.50;;
12296;SDS011;6211;49.124;9.152;2022-11-18T09:41:48;0.57;;;0.57;;
12296;SDS011;6211;49.124;9.152;2022-11-18T09:47:03;0.68;;;0.68;;
12296;SDS011;6211;49.124;9.152;2022-11-18T09:49:33;0.70;;;0.70;;
12296;SDS011;6211;49.124;9.152;2022-11-18T09:52:02;0.68;;;0.68;;
12296;SDS011;6211;49.124;9.152;2022-11-18T09:54:30;0.60;;;0.60;;
12296;SDS011;6211;49.124;9.152;2022-11-18T09:56:59;0.60;;;0.60;;
12296;SDS011;6211;49.124;9.152;2022-11-18T09:59:29;0.35;;;0.35;;
12296;SDS011;6211;49.124;9.152;2022-11-18T10:01:57;0.60;;;0.60;;
12296;SDS011;6211;49.124;9.152;2022-11-18T10:04:29;0.57;;;0.55;;
12296;SDS011;6211;49.124;9.152;2022-11-18T10:06:56;0.60;;;0.60;;
12296;SDS011;6211;49.124;9.152;2022-11-18T10:09:25;0.50;;;0.50;;
12296;SDS011;6211;49.124;9.152;2022-11-18T10:12:00;0.70;;;0.70;;
12296;SDS011;6211;49.124;9.152;2022-11-18T10:14:32;0.50;;;0.50;;
12296;SDS011;6211;49.124;9.152;2022-11-18T10:17:03;0.52;;;0.52;;
12296;SDS011;6211;49.124;9.152;2022-11-18T10:19:35;1.05;;;0.95;;
12296;SDS011;6211;49.124;9.152;2022-11-18T10:22:06;0.68;;;0.68;;
12296;SDS011;6211;49.124;9.152;2022-11-18T10:24:40;0.60;;;0.60;;
12296;SDS011;6211;49.124;9.152;2022-11-18T10:27:09;1.27;;;0.98;;
12296;SDS011;6211;49.124;9.152;2022-11-18T10:29:36;0.85;;;0.85;;
12296;SDS011;6211;49.124;9.152;2022-11-18T10:32:04;0.73;;;0.73;;
12296;SDS011;6211;49.124;9.152;2022-11-18T10:34:32;0.88;;;0.88;;
12296;SDS011;6211;49.124;9.152;2022-11-18T10:37:02;1.17;;;1.08;;
12296;SDS011;6211;49.124;9.152;2022-11-18T10:39:29;0.90;;;0.90;;
12296;SDS011;6211;49.124;9.152;2022-11-18T10:41:58;1.08;;;0.98;;
12296;SDS011;6211;49.124;9.152;2022-11-18T10:44:35;1.38;;;1.25;;
12296;SDS011;6211;49.124;9.152;2022-11-18T10:49:58;1.45;;;1.27;;
12296;SDS011;6211;49.124;9.152;2022-11-18T10:52:28;3.95;;;1.25;;
12296;SDS011;6211;49.124;9.152;2022-11-18T10:55:16;1.10;;;1.10;;
12296;SDS011;6211;49.124;9.152;2022-11-18T10:57:44;1.55;;;1.45;;
12296;SDS011;6211;49.124;9.152;2022-11-18T11:02:54;1.42;;;1.33;;
12296;SDS011;6211;49.124;9.152;2022-11-18T11:05:21;3.22;;;1.50;;
12296;SDS011;6211;49.124;9.152;2022-11-18T11:07:54;2.28;;;1.70;;
12296;SDS011;6211;49.124;9.152;2022-11-18T11:10:26;1.92;;;1.73;;
12296;SDS011;6211;49.124;9.152;2022-11-18T11:12:54;1.17;;;1.02;;
12296;SDS011;6211;49.124;9.152;2022-11-18T11:15:23;1.30;;;1.20;;
12296;SDS011;6211;49.124;9.152;2022-11-18T11:17:55;2.42;;;1.27;;
12296;SDS011;6211;49.124;9.152;2022-11-18T11:20:37;1.30;;;1.20;;
12296;SDS011;6211;49.124;9.152;2022-11-18T11:23:08;1.42;;;1.30;;
12296;SDS011;6211;49.124;9.152;2022-11-18T11:25:37;1.48;;;1.38;;
12296;SDS011;6211;49.124;9.152;2022-11-18T11:28:07;1.67;;;1.58;;
12296;SDS011;6211;49.124;9.152;2022-11-18T11:30:39;1.48;;;1.38;;
12296;SDS011;6211;49.124;9.152;2022-11-18T11:33:18;1.55;;;1.45;;
12296;SDS011;6211;49.124;9.152;2022-11-18T11:35:46;1.73;;;1.63;;
12296;SDS011;6211;49.124;9.152;2022-11-18T11:38:19;2.10;;;1.90;;
12296;SDS011;6211;49.124;9.152;2022-11-18T11:40:51;1.75;;;1.65;;
12296;SDS011;6211;49.124;9.152;2022-11-18T11:43:22;1.30;;;1.20;;
12296;SDS011;6211;49.124;9.152;2022-11-18T11:45:58;2.83;;;1.60;;
12296;SDS011;6211;49.124;9.152;2022-11-18T11:48:29;1.70;;;1.60;;
12296;SDS011;6211;49.124;9.152;2022-11-18T11:50:59;2.58;;;1.80;;
12296;SDS011;6211;49.124;9.152;2022-11-18T11:53:40;2.67;;;1.23;;
12296;SDS011;6211;49.124;9.152;2022-11-18T11:56:11;1.63;;;1.30;;
12296;SDS011;6211;49.124;9.152;2022-11-18T11:58:42;1.38;;;1.27;;
12296;SDS011;6211;49.124;9.152;2022-11-18T12:01:12;1.52;;;1.42;;
12296;SDS011;6211;49.124;9.152;2022-11-18T12:03:44;1.50;;;1.40;;
12296;SDS011;6211;49.124;9.152;2022-11-18T12:06:11;1.48;;;1.38;;
12296;SDS011;6211;49.124;9.152;2022-11-18T12:08:42;1.48;;;1.20;;
12296;SDS011;6211;49.124;9.152;2022-11-18T12:11:12;3.60;;;1.42;;
12296;SDS011;6211;49.124;9.152;2022-11-18T12:13:45;2.00;;;1.48;;
12296;SDS011;6211;49.124;9.152;2022-11-18T12:16:23;1.20;;;1.10;;
12296;SDS011;6211;49.124;9.152;2022-11-18T12:18:52;1.33;;;1.23;;
12296;SDS011;6211;49.124;9.152;2022-11-18T12:24:26;2.63;;;1.00;;
12296;SDS011;6211;49.124;9.152;2022-11-18T12:26:56;1.30;;;1.20;;
12296;SDS011;6211;49.124;9.152;2022-11-18T12:29:24;1.40;;;1.30;;
12296;SDS011;6211;49.124;9.152;2022-11-18T12:31:51;1.08;;;1.02;;
12296;SDS011;6211;49.124;9.152;2022-11-18T12:34:27;3.00;;;1.23;;
12296;SDS011;6211;49.124;9.152;2022-11-18T12:36:55;0.82;;;0.82;;
12296;SDS011;6211;49.124;9.152;2022-11-18T12:42:37;1.85;;;0.98;;
12296;SDS011;6211;49.124;9.152;2022-11-18T12:48:30;3.13;;;1.05;;
12296;SDS011;6211;49.124;9.152;2022-11-18T12:50:58;0.85;;;0.82;;
12296;SDS011;6211;49.124;9.152;2022-11-18T12:53:30;2.80;;;1.60;;
12296;SDS011;6211;49.124;9.152;2022-11-18T12:55:58;1.20;;;1.10;;
12296;SDS011;6211;49.124;9.152;2022-11-18T12:58:27;0.85;;;0.85;;
12296;SDS011;6211;49.124;9.152;2022-11-18T13:01:05;2.25;;;1.02;;
12296;SDS011;6211;49.124;9.152;2022-11-18T13:03:32;1.20;;;0.90;;
12296;SDS011;6211;49.124;9.152;2022-11-18T13:06:00;1.00;;;1.00;;
12296;SDS011;6211;49.124;9.152;2022-11-18T13:08:28;0.80;;;0.80;;
12296;SDS011;6211;49.124;9.152;2022-11-18T13:10:56;0.85;;;0.75;;
12296;SDS011;6211;49.124;9.152;2022-11-18T13:13:40;2.15;;;0.70;;
12296;SDS011;6211;49.124;9.152;2022-11-18T13:16:12;0.50;;;0.50;;
12296;SDS011;6211;49.124;9.152;2022-11-18T13:18:58;0.80;;;0.70;;
12296;SDS011;6211;49.124;9.152;2022-11-18T13:21:26;2.45;;;0.70;;
12296;SDS011;6211;49.124;9.152;2022-11-18T13:24:25;0.68;;;0.68;;
12296;SDS011;6211;49.124;9.152;2022-11-18T13:26:53;1.05;;;1.05;;
12296;SDS011;6211;49.124;9.152;2022-11-18T13:29:25;0.88;;;0.60;;
12296;SDS011;6211;49.124;9.152;2022-11-18T13:31:58;1.00;;;0.68;;
12296;SDS011;6211;49.124;9.152;2022-11-18T13:34:28;0.45;;;0.45;;
12296;SDS011;6211;49.124;9.152;2022-11-18T13:36:56;1.73;;;0.50;;
12296;SDS011;6211;49.124;9.152;2022-11-18T13:39:25;1.88;;;0.70;;
12296;SDS011;6211;49.124;9.152;2022-11-18T13:41:59;1.42;;;1.10;;
12296;SDS011;6211;49.124;9.152;2022-11-18T13:44:29;0.70;;;0.70;;
12296;SDS011;6211;49.124;9.152;2022-11-18T13:46:59;0.70;;;0.70;;
12296;SDS011;6211;49.124;9.152;2022-11-18T13:49:31;1.02;;;0.95;;
12296;SDS011;6211;49.124;9.152;2022-11-18T13:52:02;1.10;;;1.00;;
12296;SDS011;6211;49.124;9.152;2022-11-18T13:54:30;2.45;;;1.00;;
12296;SDS011;6211;49.124;9.152;2022-11-18T13:56:57;0.98;;;0.98;;
12296;SDS011;6211;49.124;9.152;2022-11-18T13:59:24;0.88;;;0.85;;
12296;SDS011;6211;49.124;9.152;2022-11-18T14:01:54;1.27;;;0.93;;
12296;SDS011;6211;49.124;9.152;2022-11-18T14:04:21;0.60;;;0.60;;
12296;SDS011;6211;49.124;9.152;2022-11-18T14:06:49;2.25;;;1.08;;
12296;SDS011;6211;49.124;9.152;2022-11-18T14:09:21;1.40;;;0.93;;
12296;SDS011;6211;49.124;9.152;2022-11-18T14:11:56;0.70;;;0.68;;
12296;SDS011;6211;49.124;9.152;2022-11-18T14:14:28;1.80;;;0.98;;
12296;SDS011;6211;49.124;9.152;2022-11-18T14:17:03;0.82;;;0.82;;
12296;SDS011;6211;49.124;9.152;2022-11-18T14:19:31;3.13;;;1.55;;
12296;SDS011;6211;49.124;9.152;2022-11-18T14:22:02;1.27;;;1.10;;
12296;SDS011;6211;49.124;9.152;2022-11-18T14:24:29;0.80;;;0.80;;
12296;SDS011;6211;49.124;9.152;2022-11-18T14:26:57;1.48;;;1.27;;
12296;SDS011;6211;49.124;9.152;2022-11-18T14:29:24;1.15;;;0.90;;
12296;SDS011;6211;49.124;9.152;2022-11-18T14:32:04;1.73;;;1.23;;
12296;SDS011;6211;49.124;9.152;2022-11-18T14:34:38;5.07;;;1.02;;
12296;SDS011;6211;49.124;9.152;2022-11-18T14:37:08;1.92;;;1.02;;
12296;SDS011;6211;49.124;9.152;2022-11-18T14:39:37;0.80;;;0.80;;
12296;SDS011;6211;49.124;9.152;2022-11-18T14:42:04;3.28;;;0.90;;
12296;SDS011;6211;49.124;9.152;2022-11-18T14:44:31;1.05;;;1.00;;
12296;SDS011;6211;49.124;9.152;2022-11-18T14:46:59;2.45;;;1.10;;
12296;SDS011;6211;49.124;9.152;2022-11-18T14:49:29;2.55;;;1.08;;
12296;SDS011;6211;49.124;9.152;2022-11-18T14:51:57;0.60;;;0.60;;
12296;SDS011;6211;49.124;9.152;2022-11-18T14:54:26;0.82;;;0.82;;
12296;SDS011;6211;49.124;9.152;2022-11-18T14:56:54;0.82;;;0.77;;
12296;SDS011;6211;49.124;9.152;2022-11-18T14:59:22;1.02;;;0.50;;
12296;SDS011;6211;49.124;9.152;2022-11-18T15:01:49;0.90;;;0.90;;
12296;SDS011;6211;49.124;9.152;2022-11-18T15:04:16;4.00;;;0.80;;
12296;SDS011;6211;49.124;9.152;2022-11-18T15:06:46;0.88;;;0.80;;
12296;SDS011;6211;49.124;9.152;2022-11-18T15:09:13;0.70;;;0.70;;
12296;SDS011;6211;49.124;9.152;2022-11-18T15:11:40;4.32;;;1.23;;
12296;SDS011;6211;49.124;9.152;2022-11-18T15:14:08;0.57;;;0.57;;
12296;SDS011;6211;49.124;9.152;2022-11-18T15:16:35;0.75;;;0.63;;
12296;SDS011;6211;49.124;9.152;2022-11-18T15:19:03;1.75;;;0.82;;
12296;SDS011;6211;49.124;9.152;2022-11-18T15:21:32;1.00;;;0.90;;
12296;SDS011;6211;49.124;9.152;2022-11-18T15:24:00;3.05;;;1.00;;
12296;SDS011;6211;49.124;9.152;2022-11-18T15:26:28;1.15;;;1.15;;
12296;SDS011;6211;49.124;9.152;2022-11-18T15:28:57;0.70;;;0.70;;
12296;SDS011;6211;49.124;9.152;2022-11-18T15:31:24;1.35;;;0.90;;
12296;SDS011;6211;49.124;9.152;2022-11-18T15:33:52;2.00;;;1.15;;